Time;durP1;ratioP1;P1;durP2;ratioP2;P2;SDS_P1;SDS_P2;PMS_P1;PMS_P2;Temp;Humidity;BMP_temperature;BMP_pressure;BME280_temperature;BME280_humidity;BME280_pressure;Samples;Min_cycle;Max_cycle;Signal;HPM_P1;HPM_P2
2020/12/09 09:13:13;;;;;;;19.15;7.87;;;;;;;-2.16;69.08;101486.00;1782290;79;28295;-63
2020/12/09 09:15:40;;;;;;;22.85;7.78;;;;;;;-2.16;69.08;101486.00;1732390;81;21468;-62
2020/12/09 09:18:08;;;;;;;19.45;7.40;;;;;;;-2.14;68.99;101489.94;1684286;83;21239;-62
2020/12/09 09:20:36;;;;;;;18.32;7.10;;;;;;;-2.14;68.68;101485.91;1714425;82;21990;-63
2020/12/09 09:23:05;;;;;;;16.35;6.67;;;;;;;-2.20;68.33;101479.56;1713873;82;21592;-65
2020/12/09 09:25:34;;;;;;;18.42;7.03;;;;;;;-2.20;68.33;101479.56;1715987;82;21758;-63
2020/12/09 09:28:03;;;;;;;32.70;10.63;;;;;;;-2.21;68.29;101490.77;1731281;81;21193;-62
2020/12/09 09:30:30;;;;;;;25.15;8.48;;;;;;;-2.21;68.29;101490.77;1719624;82;21426;-65
2020/12/09 09:32:57;;;;;;;33.15;11.60;;;;;;;-2.18;68.20;101485.23;1704185;82;21209;-63
2020/12/09 09:35:25;;;;;;;24.20;9.03;;;;;;;-2.18;67.64;101478.98;1703319;83;21434;-64
2020/12/09 09:37:52;;;;;;;23.55;8.70;;;;;;;-2.19;67.64;101477.27;1702047;83;21888;-65
2020/12/09 09:40:20;;;;;;;22.48;7.70;;;;;;;-2.17;67.38;101486.09;1713847;83;21189;-63
2020/12/09 09:42:50;;;;;;;19.02;6.35;;;;;;;-2.17;67.38;101486.09;1717535;82;21180;-62
2020/12/09 09:45:17;;;;;;;26.57;9.33;;;;;;;-2.20;67.03;101472.38;1673221;83;21905;-64
2020/12/09 09:47:45;;;;;;;18.82;8.03;;;;;;;-2.20;67.30;101487.61;1687870;84;21217;-63
2020/12/09 09:50:13;;;;;;;32.23;10.65;;;;;;;-2.17;67.36;101481.59;1700223;84;21434;-64
2020/12/09 09:52:41;;;;;;;34.70;13.18;;;;;;;-2.17;67.36;101481.59;1687525;83;21641;-63
2020/12/09 09:55:08;;;;;;;31.30;11.60;;;;;;;-2.11;67.42;101491.97;1716740;82;21392;-66
2020/12/09 09:57:36;;;;;;;24.43;8.88;;;;;;;-2.05;67.47;101497.45;1716904;82;21177;-65
2020/12/09 10:00:06;;;;;;;24.23;8.88;;;;;;;-1.99;67.21;101493.06;1717581;83;21415;-64
2020/12/09 10:02:35;;;;;;;18.73;6.62;;;;;;;-1.99;67.05;101480.50;1720680;82;21267;-64
2020/12/09 10:05:02;;;;;;;23.62;9.83;;;;;;;-1.99;66.83;101485.01;1715308;82;21721;-64
2020/12/09 10:07:30;;;;;;;16.35;6.08;;;;;;;-2.05;66.75;101480.00;1712993;83;21366;-65
2020/12/09 10:10:01;;;;;;;23.90;7.87;;;;;;;-2.04;66.68;101479.05;1712780;82;21164;-64
2020/12/09 10:12:27;;;;;;;17.00;5.90;;;;;;;-2.04;66.68;101479.05;1699273;82;21959;-65
2020/12/09 10:14:55;;;;;;;21.30;7.67;;;;;;;-2.01;66.88;101478.39;1688009;83;21480;-63
2020/12/09 10:17:23;;;;;;;18.37;7.22;;;;;;;-1.95;66.68;101471.34;1696515;83;21324;-65
2020/12/09 10:19:50;;;;;;;31.70;10.93;;;;;;;-1.95;66.68;101471.34;1694175;82;21141;-64
2020/12/09 10:22:17;;;;;;;22.90;7.97;;;;;;;-1.92;66.34;101475.66;1695209;83;21417;-65
2020/12/09 10:24:47;;;;;;;18.55;6.60;;;;;;;-1.92;66.34;101475.66;1702944;84;21186;-64
2020/12/09 10:27:15;;;;;;;21.45;8.13;;;;;;;-1.88;66.25;101468.28;1688905;84;21887;-65
2020/12/09 10:29:43;;;;;;;18.20;6.97;;;;;;;-1.87;66.25;101473.56;1696511;83;21263;-66
2020/12/09 10:32:11;;;;;;;20.32;6.03;;;;;;;-1.83;66.25;101461.68;1683212;83;21209;-64
2020/12/09 10:34:40;;;;;;;20.43;7.47;;;;;;;-1.83;66.15;101469.73;1687079;83;21192;-68
2020/12/09 10:37:08;;;;;;;21.90;7.80;;;;;;;-1.87;66.10;101465.51;1674633;84;21408;-65
2020/12/09 10:39:36;;;;;;;24.47;7.67;;;;;;;-1.87;66.08;101465.51;1680084;83;21224;-66
2020/12/09 10:42:03;;;;;;;22.93;7.10;;;;;;;-1.85;66.20;101474.81;1698290;83;21810;-62
2020/12/09 10:44:31;;;;;;;17.87;7.15;;;;;;;-1.83;66.16;101464.37;1696438;82;21474;-62
2020/12/09 10:47:01;;;;;;;18.40;6.97;;;;;;;-1.87;66.11;101462.82;1690730;84;21988;-64
2020/12/09 10:49:32;;;;;;;17.02;6.42;;;;;;;-1.88;65.93;101451.70;1702843;83;21874;-64
2020/12/09 10:51:58;;;;;;;20.15;7.45;;;;;;;-1.91;65.94;101463.96;1702809;84;21454;-67
2020/12/09 10:54:25;;;;;;;18.32;6.47;;;;;;;-1.93;65.99;101466.73;1698683;83;21223;-64
2020/12/09 10:56:54;;;;;;;18.82;7.47;;;;;;;-1.93;66.02;101455.13;1689936;83;21196;-65
2020/12/09 10:59:22;;;;;;;20.48;6.67;;;;;;;-1.94;66.00;101462.80;1694901;84;21852;-66
2020/12/09 11:01:53;;;;;;;22.02;6.78;;;;;;;-1.94;66.05;101457.44;1692875;83;21362;-63
2020/12/09 11:04:20;;;;;;;21.87;8.38;;;;;;;-1.92;66.06;101463.58;1643280;84;21866;-64
2020/12/09 11:06:47;;;;;;;20.68;8.88;;;;;;;-1.92;66.08;101462.23;1691388;82;21154;-63
2020/12/09 11:09:15;;;;;;;26.55;8.55;;;;;;;-1.94;66.09;101462.80;1691777;83;21632;-65
2020/12/09 11:11:46;;;;;;;19.10;6.40;;;;;;;-1.95;66.14;101453.88;1689143;83;21403;-63
2020/12/09 11:14:13;;;;;;;18.12;6.87;;;;;;;-1.95;66.12;101460.59;1704549;82;21847;-63
2020/12/09 11:16:42;;;;;;;19.07;6.75;;;;;;;-1.95;66.29;101460.59;1704555;84;21339;-63
2020/12/09 11:19:09;;;;;;;19.32;6.55;;;;;;;-1.93;66.35;101459.16;1685819;84;21173;-63
2020/12/09 11:21:40;;;;;;;20.45;7.53;;;;;;;-1.90;66.41;101464.83;1704491;82;21204;-63
2020/12/09 11:24:07;;;;;;;22.95;7.83;;;;;;;-1.89;66.42;101465.22;1708714;82;21196;-63
2020/12/09 11:26:35;;;;;;;15.65;5.65;;;;;;;-1.85;66.48;101458.22;1706949;82;21383;-61
2020/12/09 11:29:02;;;;;;;20.30;6.85;;;;;;;-1.84;66.35;101465.33;1708329;84;21188;-67
2020/12/09 11:31:30;;;;;;;16.67;6.83;;;;;;;-1.86;66.36;101462.34;1710360;82;21393;-64
2020/12/09 11:33:58;;;;;;;20.05;7.30;;;;;;;-1.88;66.34;101457.55;1709378;82;21805;-62
2020/12/09 11:36:33;;;;;;;18.73;7.10;;;;;;;-1.89;66.33;101453.99;1706947;84;21640;-65
2020/12/09 11:39:04;;;;;;;20.23;6.37;;;;;;;-1.90;66.41;101459.45;1706049;82;21999;-63
2020/12/09 11:41:34;;;;;;;16.25;6.60;;;;;;;-1.91;66.35;101453.22;1707735;82;22000;-63
2020/12/09 11:44:03;;;;;;;18.02;6.47;;;;;;;-1.92;66.19;101440.27;1710480;82;21217;-71
2020/12/09 11:46:31;;;;;;;16.12;6.72;;;;;;;-1.94;66.28;101450.23;1705838;82;21316;-65
2020/12/09 11:49:01;;;;;;;20.20;7.62;;;;;;;-1.92;66.48;101445.64;1705821;84;21228;-67
2020/12/09 11:51:28;;;;;;;26.65;7.95;;;;;;;-1.88;66.43;101440.95;1704561;83;21276;-61
2020/12/09 11:53:55;;;;;;;24.77;8.18;;;;;;;-1.81;66.44;101429.35;1705490;82;21496;-64
2020/12/09 11:56:23;;;;;;;21.57;8.18;;;;;;;-1.81;66.44;101429.35;1704504;82;21518;-63
2020/12/09 11:58:51;;;;;;;18.57;6.60;;;;;;;-1.78;66.09;101431.38;1704551;82;21495;-63
2020/12/09 12:01:19;;;;;;;20.00;7.42;;;;;;;-1.78;66.09;101431.38;1707645;83;21812;-62
2020/12/09 12:03:47;;;;;;;17.07;6.80;;;;;;;-1.74;65.90;101437.42;1700113;82;21439;-64
2020/12/09 12:06:26;;;;;;;22.98;8.23;;;;;;;-1.76;65.90;101438.86;1693792;84;21302;-65
2020/12/09 12:08:53;;;;;;;17.80;6.85;;;;;;;-1.78;65.92;101440.78;1708819;84;21945;-63
2020/12/09 12:11:23;;;;;;;17.32;6.42;;;;;;;-1.74;66.04;101438.29;1706638;82;21154;-62
2020/12/09 12:13:51;;;;;;;23.55;7.00;;;;;;;-1.72;65.94;101440.88;1697463;82;21948;-61
2020/12/09 12:16:20;;;;;;;19.02;7.03;;;;;;;-1.76;65.98;101436.66;1683958;84;21747;-63
2020/12/09 12:18:48;;;;;;;26.50;8.05;;;;;;;-1.76;66.10;101439.34;1708350;82;21421;-65
2020/12/09 12:21:17;;;;;;;19.73;8.33;;;;;;;-1.70;66.42;101450.58;1695742;82;21880;-62
2020/12/09 12:23:47;;;;;;;19.65;7.70;;;;;;;-1.65;66.37;101449.81;1704967;82;21390;-67
2020/12/09 12:26:21;;;;;;;18.48;7.37;;;;;;;-1.62;66.39;101452.80;1708066;82;21938;-65
2020/12/09 12:28:49;;;;;;;15.70;6.50;;;;;;;-1.55;66.27;101449.25;1694335;81;21407;-65
2020/12/09 12:31:19;;;;;;;17.05;7.17;;;;;;;-1.57;66.06;101454.72;1711149;81;21197;-65
2020/12/09 12:33:47;;;;;;;21.40;7.60;;;;;;;-1.54;65.95;101459.04;1695267;84;21180;-63
2020/12/09 12:36:14;;;;;;;21.75;8.43;;;;;;;-1.55;65.85;101457.31;1711019;82;21452;-64
2020/12/09 12:38:43;;;;;;;18.92;7.62;;;;;;;-1.55;65.84;101462.20;1710412;82;21425;-63
2020/12/09 12:41:11;;;;;;;21.12;7.70;;;;;;;-1.51;65.93;101462.41;1700381;82;21464;-67
2020/12/09 12:43:39;;;;;;;17.73;6.90;;;;;;;-1.48;65.79;101464.04;1704578;82;21747;-63
2020/12/09 12:46:11;;;;;;;15.28;7.17;;;;;;;-1.50;65.52;101468.64;1703966;82;21929;-63
2020/12/09 12:48:39;;;;;;;17.25;7.28;;;;;;;-1.55;65.32;101474.30;1697064;84;21613;-62
2020/12/09 12:51:06;;;;;;;19.07;6.45;;;;;;;-1.59;65.32;101453.95;1708038;82;21592;-63
2020/12/09 12:53:33;;;;;;;17.67;6.25;;;;;;;-1.59;65.18;101462.02;1709858;82;21766;-64
2020/12/09 12:56:02;;;;;;;16.57;6.42;;;;;;;-1.62;65.01;101464.88;1722646;82;21966;-62
2020/12/09 12:58:31;;;;;;;16.60;6.83;;;;;;;-1.70;65.06;101472.06;1718425;82;21456;-61
2020/12/09 13:00:58;;;;;;;19.02;7.08;;;;;;;-1.76;65.11;101461.70;1715511;82;22038;-63
2020/12/09 13:03:26;;;;;;;15.13;5.90;;;;;;;-1.84;65.15;101468.01;1710255;82;21146;-64
2020/12/09 13:05:53;;;;;;;16.55;6.17;;;;;;;-1.89;65.18;101471.92;1716620;82;21385;-66
2020/12/09 13:08:21;;;;;;;18.23;6.20;;;;;;;-1.96;65.44;101471.39;1709806;84;21880;-63
2020/12/09 13:10:48;;;;;;;20.15;6.47;;;;;;;-2.03;65.53;101466.00;1707344;84;21141;-64
2020/12/09 13:13:16;;;;;;;15.48;6.28;;;;;;;-2.06;65.64;101470.22;1704544;84;21442;-66
2020/12/09 13:15:43;;;;;;;22.67;7.00;;;;;;;-2.03;66.60;101460.64;1706713;82;21199;-63
2020/12/09 13:18:11;;;;;;;17.50;7.33;;;;;;;-2.03;66.60;101460.64;1706187;82;21788;-64
2020/12/09 13:20:39;;;;;;;21.40;7.87;;;;;;;-1.96;66.68;101460.66;1705746;82;21214;-65
2020/12/09 13:23:08;;;;;;;20.95;7.08;;;;;;;-1.88;66.72;101464.25;1713866;81;21141;-63
2020/12/09 13:25:36;;;;;;;21.02;8.00;;;;;;;-1.80;66.53;101461.97;1710110;82;22016;-63
2020/12/09 13:28:05;;;;;;;20.00;7.78;;;;;;;-1.76;66.36;101460.35;1709130;82;21501;-62
2020/12/09 13:30:33;;;;;;;22.90;7.33;;;;;;;-1.72;66.24;101468.61;1709238;82;21343;-66
2020/12/09 13:33:02;;;;;;;18.73;6.37;;;;;;;-1.69;66.07;101454.99;1713156;82;21359;-62
2020/12/09 13:35:30;;;;;;;17.75;6.62;;;;;;;-1.72;65.76;101461.03;1722529;82;21891;-63
2020/12/09 13:37:59;;;;;;;17.98;8.28;;;;;;;-1.77;65.54;101460.45;1713350;82;21423;-63
2020/12/09 13:40:26;;;;;;;22.52;7.92;;;;;;;-1.83;65.53;101461.68;1684725;84;21315;-66
2020/12/09 13:42:54;;;;;;;15.45;7.37;;;;;;;-1.85;65.62;101463.59;1681608;84;21245;-64
2020/12/09 13:45:21;;;;;;;19.23;6.90;;;;;;;-1.83;65.51;101467.53;1681674;84;21149;-63
2020/12/09 13:47:51;;;;;;;19.42;6.65;;;;;;;-1.84;65.38;101468.01;1681501;84;21176;-64
2020/12/09 13:50:18;;;;;;;17.37;6.72;;;;;;;-1.88;65.14;101468.28;1681647;85;21541;-62
2020/12/09 13:52:45;;;;;;;18.65;6.85;;;;;;;-1.94;65.17;101466.36;1705064;82;21200;-63
2020/12/09 13:55:13;;;;;;;21.48;6.42;;;;;;;-2.00;65.46;101469.85;1742779;82;21225;-67
2020/12/09 13:57:42;;;;;;;22.00;7.72;;;;;;;-2.02;65.60;101471.77;1702320;81;21510;-62
2020/12/09 14:00:10;;;;;;;20.00;8.05;;;;;;;-2.06;65.87;101486.33;1687739;84;21373;-67
2020/12/09 14:02:38;;;;;;;20.27;7.95;;;;;;;-2.06;65.87;101486.33;1715696;82;21192;-64
2020/12/09 14:05:08;;;;;;;24.90;8.78;;;;;;;-2.05;65.87;101480.86;1713069;82;21944;-68
2020/12/09 14:07:36;;;;;;;19.45;7.72;;;;;;;-2.03;65.90;101483.45;1707926;82;21173;-66
2020/12/09 14:10:04;;;;;;;16.02;6.97;;;;;;;-2.03;65.87;101491.52;1710268;83;21319;-64
2020/12/09 14:12:32;;;;;;;17.82;7.47;;;;;;;-2.04;65.65;101486.62;1708418;82;21190;-63
2020/12/09 14:15:03;;;;;;;20.90;7.22;;;;;;;-2.17;65.82;101495.48;1713010;82;21485;-63
2020/12/09 14:17:32;;;;;;;16.25;6.50;;;;;;;-2.17;65.82;101495.48;1713099;82;21932;-61
2020/12/09 14:20:05;;;;;;;20.48;6.15;;;;;;;-2.17;65.81;101484.75;1713106;82;21436;-65
2020/12/09 14:22:29;;;;;;;15.63;6.53;;;;;;;-2.19;65.87;101481.29;1713239;82;21171;-61
2020/12/09 14:25:03;;;;;;;19.73;7.87;;;;;;;-2.22;66.06;101477.44;1712821;82;21617;-63
2020/12/09 14:27:33;;;;;;;19.75;7.40;;;;;;;-2.20;66.06;101477.74;1710671;83;21212;-64
2020/12/09 14:30:00;;;;;;;20.92;7.42;;;;;;;-2.20;66.26;101481.77;1707271;82;21430;-65
2020/12/09 14:32:30;;;;;;;21.40;7.42;;;;;;;-2.20;66.26;101481.77;1684227;83;21902;-67
2020/12/09 14:35:01;;;;;;;20.70;7.78;;;;;;;-2.19;66.40;101481.29;1664784;83;21228;-66
2020/12/09 14:37:28;;;;;;;18.57;6.83;;;;;;;-2.19;66.48;101488.00;1712983;82;21328;-65
2020/12/09 14:40:07;;;;;;;;;;;;;;;-2.18;66.57;101480.33;1715355;82;21202;-65
2020/12/09 14:42:37;;;;;;;17.75;6.47;;;;;;;-2.18;66.62;101480.33;1712869;82;20216;-70
2020/12/09 14:45:13;;;;;;;18.80;6.62;;;;;;;-2.19;66.65;101481.29;1714688;82;21365;-65
2020/12/09 14:47:43;;;;;;;21.42;6.97;;;;;;;-2.25;66.80;101480.69;1713258;82;21202;-67
2020/12/09 14:50:15;;;;;;;15.80;7.12;;;;;;;-2.28;66.96;101478.66;1713162;82;21917;-72
2020/12/09 14:52:44;;;;;;;16.60;6.53;;;;;;;-2.27;67.33;101484.42;1741423;82;21209;-68
2020/12/09 14:55:17;;;;;;;22.05;7.53;;;;;;;-2.27;67.33;101484.42;1743043;82;21325;-67
2020/12/09 14:57:50;;;;;;;15.93;6.92;;;;;;;-2.27;67.38;101477.23;1743487;82;21139;-69
2020/12/09 15:00:23;;;;;;;16.52;6.15;;;;;;;-2.31;67.55;101489.58;1743197;82;21158;-69
2020/12/09 15:02:56;;;;;;;17.82;6.65;;;;;;;-2.32;67.62;101475.30;1743462;82;21931;-62
2020/12/09 15:05:27;;;;;;;17.25;7.37;;;;;;;-2.35;67.98;101473.27;1719942;82;22032;-62
2020/12/09 15:08:05;;;;;;;19.23;7.90;;;;;;;-2.35;67.98;101473.27;1712468;82;21513;-62
2020/12/09 15:10:34;;;;;;;15.28;6.33;;;;;;;-2.35;67.92;101479.97;1713035;82;21159;-67
2020/12/09 15:13:09;;;;;;;18.42;7.15;;;;;;;-2.35;67.92;101479.97;1732013;81;21195;-65
2020/12/09 15:15:36;;;;;;;14.98;6.62;;;;;;;-2.33;68.05;101482.09;1699805;83;21810;-63
2020/12/09 15:18:04;;;;;;;19.65;7.12;;;;;;;-2.31;68.09;101485.08;1699995;84;21557;-63
2020/12/09 15:20:31;;;;;;;20.52;7.28;;;;;;;-2.25;68.11;101489.22;1700224;83;22206;-63
2020/12/09 15:22:59;;;;;;;19.15;6.62;;;;;;;-2.25;68.11;101489.22;1700285;83;21513;-62
2020/12/09 15:25:26;;;;;;;15.25;6.15;;;;;;;-2.24;67.97;101479.73;1702690;82;21933;-67
2020/12/09 15:27:53;;;;;;;17.15;6.83;;;;;;;-2.24;67.97;101479.73;1702731;82;22072;-67
2020/12/09 15:30:27;;;;;;;18.27;6.47;;;;;;;-2.26;68.20;101476.76;1702832;82;21365;-67
2020/12/09 15:33:03;;;;;;;19.42;7.85;;;;;;;-2.27;68.29;101487.97;1681086;84;21225;-65
2020/12/09 15:35:37;;;;;;;17.35;7.37;;;;;;;-2.24;68.39;101477.05;1694326;83;21149;-65
2020/12/09 15:38:08;;;;;;;19.25;7.90;;;;;;;-2.17;68.48;101484.75;1680287;83;21134;-64
2020/12/09 15:40:35;;;;;;;19.62;8.00;;;;;;;-2.12;68.40;101482.19;1699914;83;21405;-62
2020/12/09 15:43:10;;;;;;;21.35;8.40;;;;;;;-2.09;68.38;101487.84;1700748;83;21222;-67
2020/12/09 15:45:37;;;;;;;18.85;7.65;;;;;;;-2.07;68.40;101490.83;1692928;83;21407;-63
2020/12/09 15:48:05;;;;;;;18.77;7.85;;;;;;;-2.00;68.42;101496.70;1700021;83;21886;-63
2020/12/09 15:50:33;;;;;;;19.20;7.78;;;;;;;-1.96;68.63;101491.06;1692256;83;21174;-64
2020/12/09 15:53:02;;;;;;;18.80;6.60;;;;;;;-1.92;68.32;101495.80;1678517;84;21397;-62
2020/12/09 15:55:32;;;;;;;20.97;7.50;;;;;;;-1.93;68.38;101499.45;1699193;83;21912;-65
2020/12/09 15:58:04;;;;;;;16.75;7.28;;;;;;;-1.93;68.38;101499.45;1686652;83;21216;-65
2020/12/09 16:00:32;;;;;;;23.27;7.85;;;;;;;-1.90;68.50;101504.64;1694639;83;21465;-65
2020/12/09 16:02:59;;;;;;;17.23;7.75;;;;;;;-1.87;68.43;101504.94;1699747;83;21856;-65
2020/12/09 16:05:27;;;;;;;21.95;9.33;;;;;;;-1.84;68.44;101516.36;1678880;84;21171;-63
2020/12/09 16:07:56;;;;;;;17.55;7.00;;;;;;;-1.82;68.43;101506.87;1699329;83;21409;-64
2020/12/09 16:10:25;;;;;;;21.40;9.20;;;;;;;-1.80;68.42;101514.36;1699830;83;21369;-66
2020/12/09 16:12:55;;;;;;;20.52;8.48;;;;;;;-1.80;68.48;101508.50;1687155;83;21861;-61
2020/12/09 16:15:22;;;;;;;23.77;8.63;;;;;;;-1.79;68.50;101508.89;1683496;84;21292;-65
2020/12/09 16:17:49;;;;;;;20.17;8.53;;;;;;;-1.74;68.51;101512.17;1711874;82;21597;-63
2020/12/09 16:20:17;;;;;;;19.25;7.72;;;;;;;-1.73;68.42;101508.52;1712174;83;21435;-61
2020/12/09 16:22:44;;;;;;;25.82;8.85;;;;;;;-1.70;68.43;101510.16;1713722;82;21902;-69
2020/12/09 16:25:11;;;;;;;20.37;7.40;;;;;;;-1.68;68.41;101506.42;1712255;82;21191;-66
2020/12/09 16:27:39;;;;;;;22.13;9.15;;;;;;;-1.64;68.40;101503.08;1708877;83;21171;-73
2020/12/09 16:30:07;;;;;;;23.30;9.05;;;;;;;-1.62;68.29;101510.09;1711660;82;21900;-69
2020/12/09 16:32:35;;;;;;;20.08;7.47;;;;;;;-1.58;68.31;101509.91;1701236;83;21996;-65
2020/12/09 16:35:03;;;;;;;19.45;8.65;;;;;;;-1.57;68.23;101503.57;1687706;83;21562;-63
2020/12/09 16:37:31;;;;;;;20.23;8.53;;;;;;;-1.56;68.21;101503.48;1694057;83;21219;-62
2020/12/09 16:39:58;;;;;;;21.48;8.35;;;;;;;-1.54;68.21;101502.04;1691077;83;21905;-63
2020/12/09 16:42:31;;;;;;;24.37;9.58;;;;;;;-1.52;68.18;101500.12;1685203;85;21320;-63
2020/12/09 16:44:54;;;;;;;22.35;8.75;;;;;;;-1.52;68.17;101492.06;1687112;83;21439;-66
2020/12/09 16:47:22;;;;;;;18.62;8.13;;;;;;;-1.48;68.18;101489.57;1692767;83;21426;-64
2020/12/09 16:49:49;;;;;;;19.35;8.50;;;;;;;-1.48;68.18;101489.57;1713275;83;21183;-64
2020/12/09 16:52:19;;;;;;;17.15;7.28;;;;;;;-1.48;68.08;101489.57;1712268;83;21463;-62
2020/12/09 16:54:48;;;;;;;20.77;8.20;;;;;;;-1.50;68.14;101492.83;1710592;82;21301;-64
2020/12/09 16:57:16;;;;;;;22.87;8.80;;;;;;;-1.51;68.14;101482.56;1713138;83;21260;-62
2020/12/09 16:59:45;;;;;;;24.47;8.68;;;;;;;-1.52;68.18;101478.63;1713215;83;21152;-63
2020/12/09 17:02:13;;;;;;;19.98;8.65;;;;;;;-1.51;68.20;101485.73;1706760;82;21879;-64
2020/12/09 17:04:40;;;;;;;24.23;9.10;;;;;;;-1.51;68.25;101488.41;1712766;82;21438;-65
2020/12/09 17:07:08;;;;;;;24.40;8.98;;;;;;;-1.50;68.27;101486.11;1713705;83;21755;-62
2020/12/09 17:09:36;;;;;;;23.92;8.83;;;;;;;-1.49;68.27;101477.95;1711967;83;21159;-63
2020/12/09 17:12:04;;;;;;;24.92;10.30;;;;;;;-1.45;68.27;101477.29;1710531;82;21896;-62
2020/12/09 17:14:32;;;;;;;23.98;9.40;;;;;;;-1.45;68.24;101482.19;1695142;82;21824;-62
2020/12/09 17:17:00;;;;;;;20.88;8.43;;;;;;;-1.38;68.25;101473.27;1690205;83;21413;-62
2020/12/09 17:19:27;;;;;;;20.40;8.55;;;;;;;-1.36;68.10;101470.00;1693869;84;21396;-64
2020/12/09 17:21:58;;;;;;;24.05;9.75;;;;;;;-1.36;67.94;101467.31;1683638;83;21185;-63
2020/12/09 17:24:26;;;;;;;23.00;10.05;;;;;;;-1.37;67.93;101469.61;1698546;83;21337;-62
2020/12/09 17:26:54;;;;;;;24.40;9.85;;;;;;;-1.37;67.88;101470.48;1698917;83;21323;-63
2020/12/09 17:29:29;;;;;;;26.02;10.23;;;;;;;-1.35;67.81;101469.91;1684434;83;21134;-64
2020/12/09 17:31:57;;;;;;;28.75;9.95;;;;;;;-1.34;67.73;101472.11;1684866;82;21181;-62
2020/12/09 17:34:25;;;;;;;27.27;11.60;;;;;;;-1.34;67.71;101469.42;1673824;84;21761;-63
2020/12/09 17:36:56;;;;;;;26.85;10.93;;;;;;;-1.35;67.59;101472.59;1693511;83;22086;-62
2020/12/09 17:39:23;;;;;;;28.87;11.53;;;;;;;-1.33;67.56;101465.77;1627816;85;21416;-62
2020/12/09 17:41:59;;;;;;;24.67;10.00;;;;;;;-1.31;67.47;101467.89;1706144;83;21894;-60
2020/12/09 17:44:27;;;;;;;26.27;10.78;;;;;;;-1.32;67.40;101467.02;1671797;84;21970;-62
2020/12/09 17:46:54;;;;;;;26.95;10.58;;;;;;;-1.27;67.20;101481.56;1675213;83;21472;-61
2020/12/09 17:49:22;;;;;;;29.23;12.00;;;;;;;-1.24;67.07;101474.64;1716893;83;21972;-62
2020/12/09 17:51:50;;;;;;;27.40;11.38;;;;;;;-1.24;66.85;101473.30;1717100;82;21318;-62
2020/12/09 17:54:18;;;;;;;23.22;10.23;;;;;;;-1.24;66.84;101465.72;1717206;82;21162;-64
2020/12/09 17:56:46;;;;;;;27.65;10.48;;;;;;;-1.23;66.72;101472.34;1717185;83;21166;-62
2020/12/09 17:59:13;;;;;;;26.25;10.25;;;;;;;-1.24;66.69;101474.64;1717412;82;21956;-64
2020/12/09 18:01:42;;;;;;;23.20;9.65;;;;;;;-1.23;66.49;101465.62;1717125;83;21217;-63
2020/12/09 18:04:10;;;;;;;22.00;9.35;;;;;;;-1.25;66.44;101457.27;1704427;83;21424;-60
2020/12/09 18:06:39;;;;;;;23.38;9.10;;;;;;;-1.25;66.38;101463.50;1700137;83;21921;-61
2020/12/09 18:09:08;;;;;;;24.05;10.00;;;;;;;-1.23;66.29;101467.44;1700280;83;21423;-62
2020/12/09 18:11:36;;;;;;;24.70;10.50;;;;;;;-1.21;66.20;101458.31;1699953;83;21405;-63
2020/12/09 18:14:04;;;;;;;25.40;9.73;;;;;;;-1.21;66.10;101459.66;1700878;82;21409;-62
2020/12/09 18:16:32;;;;;;;26.02;10.05;;;;;;;-1.19;65.99;101459.56;1722886;83;21857;-62
2020/12/09 18:19:00;;;;;;;25.82;11.48;;;;;;;-1.22;65.88;101468.69;1722907;83;21168;-66
2020/12/09 18:21:28;;;;;;;30.00;10.68;;;;;;;-1.21;65.88;101458.80;1712402;82;21859;-63
2020/12/09 18:23:58;;;;;;;30.00;11.50;;;;;;;-1.18;65.82;101464.84;1681845;84;21224;-65
2020/12/09 18:26:26;;;;;;;27.17;9.90;;;;;;;-1.15;65.65;101458.41;1681900;84;21417;-63
2020/12/09 18:28:54;;;;;;;26.05;10.50;;;;;;;-1.15;65.55;101447.17;1724040;82;21216;-64
2020/12/09 18:31:21;;;;;;;25.77;10.80;;;;;;;-1.10;65.45;101448.23;1721192;82;21374;-65
2020/12/09 18:33:49;;;;;;;24.02;9.88;;;;;;;-1.10;65.25;101446.88;1723611;81;21342;-62
2020/12/09 18:36:16;;;;;;;39.75;12.05;;;;;;;-1.10;65.18;101444.20;1722535;83;21203;-62
2020/12/09 18:38:44;;;;;;;25.70;9.93;;;;;;;-1.08;65.14;101447.17;1722621;82;21191;-63
2020/12/09 18:41:13;;;;;;;27.93;10.35;;;;;;;-1.07;64.96;101444.00;1722658;82;22332;-63
2020/12/09 18:43:41;;;;;;;26.30;10.48;;;;;;;-1.09;64.78;101449.48;1722655;82;21871;-63
2020/12/09 18:46:09;;;;;;;25.55;10.58;;;;;;;-1.13;64.76;101442.56;1722917;82;21184;-62
2020/12/09 18:48:36;;;;;;;27.02;10.40;;;;;;;-1.13;64.66;101438.53;1727904;81;21294;-64
2020/12/09 18:51:05;;;;;;;31.45;11.40;;;;;;;-1.13;64.58;101439.88;1722560;82;21871;-63
2020/12/09 18:53:32;;;;;;;26.30;9.60;;;;;;;-1.13;64.42;101438.53;1722621;81;21335;-63
2020/12/09 18:56:00;;;;;;;29.27;11.90;;;;;;;-1.14;64.30;101439.49;1722626;83;21184;-65
2020/12/09 18:58:27;;;;;;;28.40;10.95;;;;;;;-1.14;64.26;101444.00;1722604;83;21880;-63
2020/12/09 19:00:54;;;;;;;28.15;10.53;;;;;;;-1.15;64.23;101434.21;1722589;83;21195;-63
2020/12/09 19:03:24;;;;;;;32.48;11.45;;;;;;;-1.15;64.13;101432.87;1722463;82;21315;-63
2020/12/09 19:05:51;;;;;;;28.52;11.15;;;;;;;-1.16;64.06;101429.31;1682406;82;21813;-63
2020/12/09 19:08:19;;;;;;;26.77;11.53;;;;;;;-1.19;63.86;101428.16;1710030;82;22260;-64
2020/12/09 19:10:46;;;;;;;32.58;11.97;;;;;;;-1.23;63.81;101433.35;1711475;82;21259;-64
2020/12/09 19:13:15;;;;;;;27.00;10.80;;;;;;;-1.31;63.73;101430.25;1709437;82;21213;-63
2020/12/09 19:15:43;;;;;;;26.57;10.48;;;;;;;-1.36;63.74;101430.54;1704523;82;21461;-62
2020/12/09 19:18:10;;;;;;;32.48;11.15;;;;;;;-1.38;63.76;101433.80;1700242;83;21417;-63
2020/12/09 19:20:37;;;;;;;24.27;9.98;;;;;;;-1.43;63.66;101433.70;1700027;83;21444;-63
2020/12/09 19:23:04;;;;;;;24.12;10.60;;;;;;;-1.48;63.66;101438.50;1700032;84;21182;-63
2020/12/09 19:25:32;;;;;;;34.63;11.85;;;;;;;-1.51;63.73;101437.35;1699928;84;21234;-62
2020/12/09 19:27:59;;;;;;;30.55;11.10;;;;;;;-1.53;63.67;101441.48;1699912;83;21425;-66
2020/12/09 19:30:27;;;;;;;25.37;10.18;;;;;;;-1.56;63.61;101437.64;1700030;83;21484;-62
2020/12/09 19:32:55;;;;;;;24.35;10.65;;;;;;;-1.63;63.44;101434.47;1699962;83;21850;-64
2020/12/09 19:35:22;;;;;;;28.30;10.00;;;;;;;-1.74;63.51;101428.88;1699994;83;21170;-64
2020/12/09 19:37:56;;;;;;;26.80;10.68;;;;;;;-1.78;63.64;101430.51;1699965;83;21197;-62
2020/12/09 19:40:20;;;;;;;25.97;10.78;;;;;;;-1.80;63.58;101431.08;1699609;83;21976;-63
2020/12/09 19:42:47;;;;;;;27.62;9.75;;;;;;;-1.82;63.45;101428.48;1699988;83;21971;-63
2020/12/09 19:45:14;;;;;;;28.17;9.65;;;;;;;-1.83;63.39;101428.58;1700054;83;21734;-63
2020/12/09 19:47:42;;;;;;;24.55;9.30;;;;;;;-1.83;63.13;101432.13;1700041;84;21187;-64
2020/12/09 19:50:09;;;;;;;22.32;8.83;;;;;;;-1.82;62.96;101424.94;1699956;83;21931;-63
2020/12/09 19:52:37;;;;;;;27.05;10.08;;;;;;;-1.86;62.67;101425.60;1699993;83;21176;-64
2020/12/09 19:55:04;;;;;;;24.52;9.20;;;;;;;-1.90;62.54;101438.83;1699779;84;21464;-64
2020/12/09 19:57:34;;;;;;;23.77;8.88;;;;;;;-1.90;62.45;101436.63;1694808;83;21848;-62
2020/12/09 20:00:05;;;;;;;21.10;8.60;;;;;;;-1.93;62.13;101431.83;1682342;85;21184;-63
2020/12/09 20:02:38;;;;;;;25.75;8.75;;;;;;;-1.97;61.96;101430.73;1682463;84;21304;-66
2020/12/09 20:05:06;;;;;;;27.62;9.48;;;;;;;-2.01;61.85;101429.19;1693558;84;21901;-64
2020/12/09 20:07:34;;;;;;;23.07;9.43;;;;;;;-2.08;61.69;101429.16;1700101;83;21202;-64
2020/12/09 20:10:03;;;;;;;23.57;9.70;;;;;;;-2.11;61.65;101426.66;1700159;84;21362;-63
2020/12/09 20:12:32;;;;;;;28.00;9.63;;;;;;;-2.15;61.68;101429.14;1700143;83;21157;-65
2020/12/09 20:15:01;;;;;;;25.75;9.65;;;;;;;-2.14;61.38;101438.92;1701412;82;21407;-64
2020/12/09 20:17:30;;;;;;;27.62;9.53;;;;;;;-2.11;61.15;101443.64;1710518;84;21916;-62
2020/12/09 20:19:58;;;;;;;21.68;8.75;;;;;;;-2.07;60.89;101444.32;1705982;82;21263;-65
2020/12/09 20:22:27;;;;;;;25.90;9.60;;;;;;;-2.03;60.53;101445.39;1704555;84;21387;-65
2020/12/09 20:24:54;;;;;;;29.80;9.53;;;;;;;-2.00;60.29;101447.89;1704581;82;21920;-64
2020/12/09 20:27:23;;;;;;;29.90;10.38;;;;;;;-1.97;60.20;101446.84;1704507;83;21161;-65
2020/12/09 20:29:52;;;;;;;27.93;10.90;;;;;;;-1.93;60.00;101442.57;1704471;82;21133;-63
2020/12/09 20:32:21;;;;;;;32.98;9.65;;;;;;;-1.89;59.64;101439.70;1704617;83;21456;-63
2020/12/09 20:34:48;;;;;;;22.93;9.50;;;;;;;-1.90;59.13;101445.55;1704578;82;21237;-62